Pagina principale
METAR-TAF:

METAR-TAF

Aeroporti :

Aeroporto di Cervia-Pisignano

Cervia, Italia

latitudine: 44-13N, longitudine: 012-18E, altezza: 6 m

Osservazione

Il bollettino è stato emesso 37 minuti fa, alle 22:55 UTC
Vento 7 kt da est/sud-est
Temperature 21°C
Umidità 88%
Pressione 1017 hPa
Visibilità 10 km o più
nessuna nube inferiore a 1500 m e nessun cumulonembo

METAR: LIPC 142255Z 12007KT CAVOK 21/19 Q1017 RMK SKC VIS MIN 9999 WIND THR11 11007KT WIND THR29 12005KT BLU

Ora: 01:32 (23:32 UTC)

Previsione

Il bollettino è stato emesso 3 ore e 32 minuti fa, alle 20:00 UTC
Previsione valida dal 14 alle 21 UTC al 15 alle 06 UTC
Vento 15 kt da est/sud-est
Visibilità 10 km o più
nessuna nube inferiore a 1500 m e nessun cumulonembo
Evoluzione graduale
dal 14 alle 22 UTC al 14 alle 24 UTC
Vento 5 kt da est/sud-est

TAF: LIPC 142000Z 1421/1506 12015KT CAVOK BECMG 1422/1424 12005KT

Osservazioni e previsioni meteorologiche di più di 4000 aeroporti (messaggi METAR e TAF).

Le stazioni disponibili sono rappresentate dai dischi gialli e rossi sulla carta.

Puntare il mouse per vedere il nome della stazione.

Clicca sopra per visualizzare le osservazioni e previsioni meteorologiche.

Per cambiare la mappa : fare clic sui pulsanti verdi con una croce nera per ingrandire, il pulsante verde con un trattino per diminuire, o sulla freccia verde per le mappe adiacenti.


METAR-TAF: